createdAt,value
2022-10-17T00:00:35.585Z,13.04
2022-10-17T00:03:12.896Z,13.01
2022-10-17T00:05:42.150Z,13.00
2022-10-17T00:08:10.061Z,13.04
2022-10-17T00:10:37.338Z,12.99
2022-10-17T00:13:04.197Z,13.02
2022-10-17T00:15:30.887Z,13.02
2022-10-17T00:17:57.551Z,13.02
2022-10-17T00:20:24.861Z,13.00
2022-10-17T00:22:51.791Z,12.97
2022-10-17T00:25:19.241Z,12.97
2022-10-17T00:27:45.878Z,13.04
2022-10-17T00:30:14.404Z,13.05
2022-10-17T00:32:41.374Z,13.03
2022-10-17T00:35:09.331Z,12.97
2022-10-17T00:37:36.167Z,12.99
2022-10-17T00:40:04.299Z,13.01
2022-10-17T00:42:31.245Z,12.98
2022-10-17T00:45:03.688Z,12.99
2022-10-17T00:47:31.209Z,12.98
2022-10-17T00:49:59.238Z,13.00
2022-10-17T00:52:29.152Z,13.05
2022-10-17T00:55:12.675Z,13.00
2022-10-17T00:57:40.072Z,12.98
2022-10-17T01:00:10.082Z,12.98
2022-10-17T01:02:37.221Z,12.94
2022-10-17T01:05:05.234Z,12.90
2022-10-17T01:07:34.913Z,12.90
2022-10-17T01:10:07.322Z,12.89
2022-10-17T01:12:51.364Z,12.88
2022-10-17T01:15:46.055Z,12.86
2022-10-17T01:18:30.793Z,12.87
2022-10-17T01:21:29.869Z,12.88
2022-10-17T01:24:29.691Z,12.88
2022-10-17T01:27:09.744Z,12.91
2022-10-17T01:30:13.461Z,12.92
2022-10-17T01:32:47.668Z,12.94
2022-10-17T01:35:14.198Z,12.95
2022-10-17T01:38:10.462Z,12.98
2022-10-17T01:40:50.966Z,13.01
2022-10-17T01:43:26.046Z,13.02
2022-10-17T01:46:00.687Z,13.02
2022-10-17T01:48:35.141Z,12.99
2022-10-17T01:51:36.074Z,13.07
2022-10-17T01:54:09.760Z,13.08
2022-10-17T01:56:38.846Z,13.05
2022-10-17T01:59:13.943Z,13.04
2022-10-17T02:01:42.641Z,13.04
2022-10-17T02:04:11.382Z,13.08
2022-10-17T02:06:38.387Z,13.09
2022-10-17T02:09:23.061Z,13.09
2022-10-17T02:12:24.900Z,13.10
2022-10-17T02:15:35.018Z,13.07
2022-10-17T02:18:16.751Z,13.05
2022-10-17T02:20:52.273Z,13.01
2022-10-17T02:23:36.280Z,12.91
2022-10-17T02:26:16.336Z,12.95
2022-10-17T02:28:53.326Z,12.73
2022-10-17T02:31:29.189Z,12.92
2022-10-17T02:34:01.209Z,12.92
2022-10-17T02:36:34.752Z,12.88
2022-10-17T02:39:04.174Z,12.87
2022-10-17T02:41:32.972Z,12.88
2022-10-17T02:44:02.592Z,12.83
2022-10-17T02:46:31.026Z,12.81
2022-10-17T02:49:11.646Z,12.83
2022-10-17T02:52:14.191Z,12.83
2022-10-17T02:54:46.779Z,12.79
2022-10-17T02:57:24.601Z,12.80
2022-10-17T02:59:52.201Z,12.83
2022-10-17T03:02:19.042Z,12.80
2022-10-17T03:04:46.778Z,12.81
2022-10-17T03:07:13.876Z,12.83
2022-10-17T03:09:40.520Z,12.87
2022-10-17T03:12:07.180Z,12.89
2022-10-17T03:14:33.803Z,12.91
2022-10-17T03:17:00.598Z,12.89
2022-10-17T03:19:27.260Z,12.83
2022-10-17T03:21:54.498Z,12.85
2022-10-17T03:24:21.082Z,12.86
2022-10-17T03:26:47.736Z,12.87
2022-10-17T03:29:14.743Z,12.87
2022-10-17T03:31:41.481Z,12.88
2022-10-17T03:34:08.226Z,12.88
2022-10-17T03:36:34.845Z,12.87
2022-10-17T03:39:01.429Z,12.89
2022-10-17T03:41:28.075Z,12.86
2022-10-17T03:43:54.863Z,12.88
2022-10-17T03:46:21.477Z,12.84
2022-10-17T03:48:48.133Z,12.84
2022-10-17T03:51:15.477Z,12.80
2022-10-17T03:53:42.078Z,12.79
2022-10-17T03:56:10.728Z,12.76
2022-10-17T03:58:37.374Z,12.64
2022-10-17T04:01:09.139Z,12.67
2022-10-17T04:03:35.844Z,12.69
2022-10-17T04:06:04.071Z,12.73
2022-10-17T04:08:31.122Z,12.76
2022-10-17T04:11:01.560Z,12.79
2022-10-17T04:13:28.796Z,12.80
2022-10-17T04:16:03.902Z,12.85
2022-10-17T04:18:30.683Z,12.84
2022-10-17T04:20:57.624Z,12.77
2022-10-17T04:23:26.816Z,12.86
2022-10-17T04:25:57.426Z,12.89
2022-10-17T04:28:25.083Z,12.89
2022-10-17T04:31:03.303Z,12.96
2022-10-17T04:33:31.922Z,12.88
2022-10-17T04:36:03.865Z,13.00
2022-10-17T04:38:30.835Z,12.90
2022-10-17T04:40:58.627Z,12.93
2022-10-17T04:43:25.410Z,12.99
2022-10-17T04:45:52.121Z,13.06
2022-10-17T04:48:18.756Z,12.97
2022-10-17T04:50:56.357Z,13.12
2022-10-17T04:53:24.016Z,13.03
2022-10-17T04:55:51.328Z,13.08
2022-10-17T04:58:18.248Z,13.10
2022-10-17T05:00:45.641Z,13.19
2022-10-17T05:03:12.501Z,13.13
2022-10-17T05:05:40.589Z,13.20
2022-10-17T05:08:08.985Z,13.29
2022-10-17T05:10:40.079Z,13.20
2022-10-17T05:13:07.394Z,13.18
2022-10-17T05:15:34.740Z,13.24
2022-10-17T05:18:01.751Z,13.26
2022-10-17T05:20:28.600Z,13.20
2022-10-17T05:22:55.628Z,13.32
2022-10-17T05:25:22.361Z,13.30
2022-10-17T05:27:49.408Z,13.15
2022-10-17T05:30:16.070Z,13.34
2022-10-17T05:32:42.766Z,13.30
2022-10-17T05:35:09.537Z,13.33
2022-10-17T05:37:36.264Z,13.37
2022-10-17T05:40:09.428Z,13.39
2022-10-17T05:42:42.712Z,13.45
2022-10-17T05:45:09.786Z,13.47
2022-10-17T05:47:38.040Z,13.50
2022-10-17T05:50:05.580Z,13.52
2022-10-17T05:52:32.579Z,13.48
2022-10-17T05:54:59.489Z,13.47
2022-10-17T05:57:27.198Z,13.55
2022-10-17T05:59:53.792Z,13.53
2022-10-17T06:02:22.031Z,13.55
2022-10-17T06:04:50.155Z,13.55
2022-10-17T06:07:17.032Z,13.54
2022-10-17T06:12:25.566Z,13.33
2022-10-17T06:15:42.391Z,13.33
2022-10-17T06:18:09.344Z,13.59
2022-10-17T06:20:36.013Z,13.62
2022-10-17T06:23:03.047Z,13.70
2022-10-17T06:25:33.167Z,13.74
2022-10-17T06:28:00.237Z,13.77
2022-10-17T06:30:27.489Z,13.85
2022-10-17T06:32:59.446Z,13.86
2022-10-17T06:35:26.272Z,13.84
2022-10-17T06:37:53.316Z,13.93
2022-10-17T06:40:20.154Z,13.97
2022-10-17T06:42:53.345Z,13.91
2022-10-17T06:45:47.636Z,13.80
2022-10-17T06:48:15.103Z,14.02
2022-10-17T06:50:41.779Z,14.15
2022-10-17T06:53:08.431Z,14.16
2022-10-17T06:55:54.186Z,14.22
2022-10-17T06:58:21.425Z,14.25
2022-10-17T07:00:48.141Z,14.18
2022-10-17T07:03:14.852Z,14.39
2022-10-17T07:05:41.487Z,14.41
2022-10-17T07:08:25.985Z,14.36
2022-10-17T07:10:54.122Z,14.21
2022-10-17T07:16:45.638Z,14.54
2022-10-17T07:19:12.392Z,14.61
2022-10-17T07:21:39.459Z,14.66
2022-10-17T07:24:07.645Z,14.67
2022-10-17T07:26:34.254Z,14.76
2022-10-17T07:29:01.893Z,14.79
2022-10-17T07:31:28.776Z,14.87
2022-10-17T07:33:55.509Z,14.89
2022-10-17T07:36:23.897Z,14.99
2022-10-17T07:38:50.608Z,15.07
2022-10-17T07:41:20.812Z,15.13
2022-10-17T07:43:48.598Z,15.16
2022-10-17T07:46:15.795Z,15.23
2022-10-17T07:48:42.474Z,15.29
2022-10-17T07:51:10.557Z,15.40
2022-10-17T07:53:38.690Z,15.46
2022-10-17T07:56:09.370Z,15.50
2022-10-17T07:58:37.122Z,15.68
2022-10-17T08:01:15.699Z,15.71
2022-10-17T08:03:44.642Z,15.77
2022-10-17T08:06:11.643Z,15.88
2022-10-17T08:08:38.717Z,15.91
2022-10-17T08:13:57.295Z,15.71
2022-10-17T08:16:34.888Z,15.92
2022-10-17T08:24:39.578Z,16.16
2022-10-17T08:27:15.512Z,16.35
2022-10-17T08:30:29.852Z,16.34
2022-10-17T08:32:30.854Z,16.49
2022-10-17T08:35:01.984Z,16.58
2022-10-17T08:37:37.099Z,16.42
2022-10-17T08:40:12.680Z,16.65
2022-10-17T08:43:14.714Z,16.85
2022-10-17T08:45:59.559Z,16.71
2022-10-17T08:49:12.116Z,16.86
2022-10-17T08:51:44.792Z,16.98
2022-10-17T08:54:43.022Z,17.15
2022-10-17T08:57:28.513Z,17.17
2022-10-17T09:00:32.736Z,17.05
2022-10-17T09:03:27.175Z,17.37
2022-10-17T09:06:22.477Z,17.50
2022-10-17T09:09:12.531Z,17.36
2022-10-17T09:11:51.008Z,17.61
2022-10-17T09:14:42.805Z,17.74
2022-10-17T09:17:35.202Z,17.91
2022-10-17T09:20:38.394Z,18.21
2022-10-17T09:23:18.073Z,18.35
2022-10-17T09:25:48.323Z,18.45
2022-10-17T09:31:23.104Z,18.80
2022-10-17T09:33:54.681Z,18.79
2022-10-17T09:36:29.719Z,19.09
2022-10-17T09:39:01.906Z,19.04
2022-10-17T09:41:45.885Z,19.07
2022-10-17T09:44:19.643Z,19.23
2022-10-17T09:46:52.450Z,19.12
2022-10-17T09:49:35.826Z,19.10
2022-10-17T09:52:12.553Z,19.13
2022-10-17T09:55:02.694Z,19.16
2022-10-17T09:57:29.739Z,19.17
2022-10-17T10:02:41.792Z,19.39
2022-10-17T10:05:25.351Z,19.42
2022-10-17T10:08:12.846Z,19.66
2022-10-17T10:10:53.642Z,19.60
2022-10-17T10:13:30.429Z,19.53
2022-10-17T10:16:14.683Z,19.47
2022-10-17T10:18:41.664Z,19.51
2022-10-17T10:21:23.550Z,19.45
2022-10-17T10:24:30.865Z,19.56
2022-10-17T10:27:15.283Z,19.37
2022-10-17T10:29:55.262Z,19.41
2022-10-17T10:32:25.209Z,19.51
2022-10-17T10:35:21.528Z,19.59
2022-10-17T10:37:58.879Z,19.42
2022-10-17T10:40:49.050Z,19.20
2022-10-17T10:43:45.707Z,19.45
2022-10-17T10:46:30.626Z,19.26
2022-10-17T10:49:03.456Z,19.31
2022-10-17T10:51:42.585Z,19.17
2022-10-17T10:54:16.714Z,19.28
2022-10-17T10:56:51.271Z,19.38
2022-10-17T10:59:34.658Z,19.30
2022-10-17T11:02:18.724Z,19.32
2022-10-17T11:04:53.104Z,19.20
2022-10-17T11:07:37.043Z,19.19
2022-10-17T11:10:20.686Z,19.08
2022-10-17T11:13:11.206Z,19.11
2022-10-17T11:15:51.426Z,18.86
2022-10-17T11:18:57.194Z,19.11
2022-10-17T11:22:03.869Z,19.23
2022-10-17T11:25:00.435Z,19.28
2022-10-17T11:27:31.872Z,19.28
2022-10-17T11:29:59.157Z,19.18
2022-10-17T11:33:04.262Z,19.19
2022-10-17T11:36:09.523Z,19.16
2022-10-17T11:38:46.391Z,19.17
2022-10-17T11:41:55.502Z,19.17
2022-10-17T11:44:29.901Z,18.98
2022-10-17T11:47:35.797Z,18.82
2022-10-17T11:53:16.830Z,18.76
2022-10-17T11:55:45.462Z,18.76
2022-10-17T12:01:18.109Z,18.60
2022-10-17T12:04:02.991Z,18.54
2022-10-17T12:06:41.568Z,18.45
2022-10-17T12:09:18.414Z,18.41
2022-10-17T12:11:53.919Z,18.43
2022-10-17T12:14:43.588Z,18.39
2022-10-17T12:17:30.711Z,18.29
2022-10-17T12:20:21.728Z,18.25
2022-10-17T12:22:50.167Z,18.17
2022-10-17T12:25:23.955Z,18.10
2022-10-17T12:28:11.388Z,18.12
2022-10-17T12:30:50.763Z,18.07
2022-10-17T12:33:26.830Z,18.17
2022-10-17T12:36:28.072Z,18.33
2022-10-17T12:39:04.140Z,18.37
2022-10-17T12:41:39.755Z,18.33
2022-10-17T12:44:21.709Z,18.28
2022-10-17T12:46:49.583Z,18.28
2022-10-17T12:49:45.694Z,18.24
2022-10-17T12:52:16.883Z,18.23
2022-10-17T12:55:12.667Z,18.19
2022-10-17T12:57:51.504Z,18.24
2022-10-17T13:00:25.571Z,18.23
2022-10-17T13:02:55.186Z,18.23
2022-10-17T13:05:32.909Z,18.14
2022-10-17T13:08:02.315Z,18.14
2022-10-17T13:10:32.672Z,18.09
2022-10-17T13:13:13.018Z,18.03
2022-10-17T13:15:40.526Z,18.05
2022-10-17T13:18:17.492Z,17.99
2022-10-17T13:20:44.186Z,18.06
2022-10-17T13:23:24.556Z,17.94
2022-10-17T13:26:20.762Z,17.99
2022-10-17T13:29:03.391Z,18.01
2022-10-17T13:31:42.090Z,17.92
2022-10-17T13:34:20.247Z,17.93
2022-10-17T13:36:50.302Z,17.92
2022-10-17T13:39:38.553Z,17.81
2022-10-17T13:42:28.844Z,17.74
2022-10-17T13:44:57.761Z,17.73
2022-10-17T13:47:33.559Z,17.70
2022-10-17T13:50:43.728Z,17.37
2022-10-17T13:53:50.221Z,17.61
2022-10-17T13:56:28.340Z,17.60
2022-10-17T13:59:08.324Z,17.59
2022-10-17T14:01:35.302Z,17.52
2022-10-17T14:04:08.843Z,17.50
2022-10-17T14:06:49.267Z,17.51
2022-10-17T14:09:31.373Z,17.49
2022-10-17T14:12:00.818Z,17.51
2022-10-17T14:14:29.112Z,17.52
2022-10-17T14:16:57.110Z,17.50
2022-10-17T14:19:25.625Z,17.55
2022-10-17T14:22:04.356Z,17.52
2022-10-17T14:24:31.815Z,17.58
2022-10-17T14:27:01.831Z,17.63
2022-10-17T14:29:38.000Z,17.68
2022-10-17T14:32:12.387Z,17.73
2022-10-17T14:34:40.841Z,17.74
2022-10-17T14:37:12.990Z,17.72
2022-10-17T14:39:39.843Z,17.66
2022-10-17T14:42:06.645Z,17.67
2022-10-17T14:44:35.895Z,17.72
2022-10-17T14:47:38.014Z,17.75
2022-10-17T14:50:08.540Z,17.74
2022-10-17T14:52:35.746Z,17.74
2022-10-17T14:55:26.229Z,17.75
2022-10-17T14:58:05.327Z,17.79
2022-10-17T15:00:32.075Z,17.60
2022-10-17T15:02:58.793Z,17.72
2022-10-17T15:05:25.696Z,17.77
2022-10-17T15:07:52.472Z,17.75
2022-10-17T15:10:27.517Z,17.71
2022-10-17T15:12:59.151Z,17.65
2022-10-17T15:15:32.444Z,17.71
2022-10-17T15:17:59.601Z,17.65
2022-10-17T15:20:29.499Z,17.62
2022-10-17T15:23:01.732Z,17.61
2022-10-17T15:25:31.064Z,17.62
2022-10-17T15:28:09.129Z,17.64
2022-10-17T15:30:36.929Z,17.59
2022-10-17T15:33:04.123Z,17.66
2022-10-17T15:35:31.401Z,17.58
2022-10-17T15:37:58.446Z,17.62
2022-10-17T15:40:30.670Z,17.63
2022-10-17T15:42:58.103Z,17.49
2022-10-17T15:45:25.054Z,17.51
2022-10-17T15:47:54.792Z,17.44
2022-10-17T15:50:21.950Z,17.40
2022-10-17T15:52:51.138Z,17.36
2022-10-17T15:55:18.834Z,17.28
2022-10-17T15:57:47.536Z,17.25
2022-10-17T16:00:23.122Z,17.21
2022-10-17T16:02:51.044Z,17.22
2022-10-17T16:05:23.624Z,17.28
2022-10-17T16:07:53.297Z,17.25
2022-10-17T16:10:20.803Z,17.22
2022-10-17T16:12:50.151Z,17.18
2022-10-17T16:15:20.529Z,17.25
2022-10-17T16:17:47.154Z,17.11
2022-10-17T16:20:14.311Z,17.20
2022-10-17T16:22:43.111Z,17.11
2022-10-17T16:25:21.203Z,17.14
2022-10-17T16:27:49.630Z,17.14
2022-10-17T16:30:17.130Z,17.11
2022-10-17T16:32:44.134Z,16.95
2022-10-17T16:35:17.120Z,17.01
2022-10-17T16:37:43.806Z,16.96
2022-10-17T16:40:11.357Z,16.93
2022-10-17T16:42:38.013Z,16.83
2022-10-17T16:45:05.447Z,16.96
2022-10-17T16:47:32.166Z,16.86
2022-10-17T16:49:58.858Z,16.87
2022-10-17T16:52:25.700Z,16.91
2022-10-17T16:54:52.487Z,16.86
2022-10-17T16:57:19.358Z,16.84
2022-10-17T16:59:49.038Z,16.79
2022-10-17T17:02:18.906Z,16.76
2022-10-17T17:04:48.042Z,16.81
2022-10-17T17:07:14.717Z,16.83
2022-10-17T17:12:47.639Z,16.82
2022-10-17T17:15:58.369Z,16.79
2022-10-17T17:18:25.457Z,16.61
2022-10-17T17:20:52.178Z,16.56
2022-10-17T17:23:18.932Z,16.86
2022-10-17T17:25:45.722Z,16.83
2022-10-17T17:28:22.062Z,16.76
2022-10-17T17:30:48.861Z,16.86
2022-10-17T17:33:15.552Z,16.87
2022-10-17T17:35:42.213Z,16.84
2022-10-17T17:38:09.361Z,16.82
2022-10-17T17:40:36.294Z,16.73
2022-10-17T17:43:03.314Z,16.73
2022-10-17T17:45:30.272Z,16.74
2022-10-17T17:47:56.908Z,16.69
2022-10-17T17:50:23.710Z,16.63
2022-10-17T17:52:51.292Z,16.63
2022-10-17T17:55:18.062Z,16.59
2022-10-17T17:57:44.867Z,16.51
2022-10-17T18:00:12.223Z,16.49
2022-10-17T18:02:42.160Z,16.45
2022-10-17T18:05:11.021Z,16.43
2022-10-17T18:07:38.287Z,16.43
2022-10-17T18:10:07.011Z,16.33
2022-10-17T18:12:34.831Z,16.31
2022-10-17T18:15:03.290Z,16.30
2022-10-17T18:17:30.172Z,16.25
2022-10-17T18:19:56.815Z,16.31
2022-10-17T18:22:26.847Z,16.29
2022-10-17T18:24:53.640Z,16.26
2022-10-17T18:30:00.991Z,16.21
2022-10-17T18:32:31.378Z,16.24
2022-10-17T18:34:58.716Z,16.20
2022-10-17T18:37:25.532Z,16.08
2022-10-17T18:39:54.453Z,16.11
2022-10-17T18:43:04.590Z,16.13
2022-10-17T18:45:31.508Z,16.01
2022-10-17T18:47:58.477Z,16.00
2022-10-17T18:50:40.232Z,15.73
2022-10-17T18:53:15.953Z,16.01
2022-10-17T18:55:42.601Z,16.05
2022-10-17T18:58:21.822Z,16.03
2022-10-17T19:00:50.417Z,15.93
2022-10-17T19:03:18.801Z,15.93
2022-10-17T19:05:46.367Z,15.96
2022-10-17T19:08:14.899Z,15.95
2022-10-17T19:10:42.984Z,15.96
2022-10-17T19:13:11.780Z,15.91
2022-10-17T19:19:13.933Z,15.78
2022-10-17T19:24:52.764Z,15.82
2022-10-17T19:27:31.485Z,15.58
2022-10-17T19:29:58.409Z,15.90
2022-10-17T19:32:25.061Z,15.89
2022-10-17T19:34:51.685Z,15.86
2022-10-17T19:37:18.495Z,15.82
2022-10-17T19:39:45.167Z,15.78
2022-10-17T19:42:11.810Z,15.77
2022-10-17T19:47:56.377Z,15.69
2022-10-17T19:51:08.970Z,15.72
2022-10-17T19:54:24.775Z,15.57
2022-10-17T19:58:18.603Z,15.73
2022-10-17T20:00:57.498Z,15.70
2022-10-17T20:04:35.589Z,15.74
2022-10-17T20:11:58.251Z,15.74
2022-10-17T20:50:56.855Z,15.58
2022-10-17T20:53:37.509Z,15.66
2022-10-17T20:56:12.506Z,15.65
2022-10-17T20:58:39.857Z,15.48
2022-10-17T21:01:13.639Z,15.60
2022-10-17T21:03:46.381Z,15.55
2022-10-17T21:06:20.645Z,15.58
2022-10-17T21:08:58.637Z,15.41
2022-10-17T21:15:37.503Z,15.16
2022-10-17T21:18:04.214Z,15.17
2022-10-17T21:20:40.603Z,15.20
2022-10-17T21:23:11.859Z,15.05
2022-10-17T21:25:57.436Z,15.10
2022-10-17T21:28:25.356Z,15.25
2022-10-17T21:31:34.082Z,15.37
2022-10-17T21:38:09.870Z,15.19
2022-10-17T22:04:33.161Z,14.81
2022-10-17T22:07:02.805Z,14.93
2022-10-17T22:09:31.724Z,14.94
2022-10-17T22:14:49.165Z,15.01
2022-10-17T22:17:19.471Z,15.01
2022-10-17T22:22:39.297Z,14.97
2022-10-17T22:25:31.517Z,14.80
2022-10-17T22:28:01.616Z,14.92
2022-10-17T22:30:32.889Z,14.78
2022-10-17T22:33:02.707Z,14.92
2022-10-17T22:35:41.933Z,14.66
2022-10-17T22:38:09.049Z,14.91
2022-10-17T22:40:36.105Z,14.83
2022-10-17T22:43:04.044Z,14.73
2022-10-17T22:45:31.218Z,14.78
2022-10-17T22:47:58.061Z,14.89
2022-10-17T22:50:41.944Z,14.62
2022-10-17T22:53:12.425Z,14.91
2022-10-17T22:55:42.042Z,14.85
2022-10-17T22:58:14.906Z,14.76
2022-10-17T23:00:46.756Z,14.67
2022-10-17T23:03:20.450Z,14.64
2022-10-17T23:05:47.942Z,14.72
2022-10-17T23:08:24.662Z,14.90
2022-10-17T23:10:54.250Z,14.75
2022-10-17T23:13:43.645Z,14.71
2022-10-17T23:16:14.958Z,14.79
2022-10-17T23:18:58.753Z,14.63
2022-10-17T23:21:50.972Z,14.62
2022-10-17T23:24:23.317Z,14.64
2022-10-17T23:27:03.812Z,14.76
2022-10-17T23:29:34.689Z,14.54
2022-10-17T23:34:43.376Z,14.68
2022-10-17T23:37:11.674Z,14.38
2022-10-17T23:39:49.461Z,14.36
2022-10-17T23:42:20.012Z,14.48
2022-10-17T23:44:50.512Z,14.44
2022-10-17T23:47:23.900Z,14.30
2022-10-17T23:49:53.621Z,14.27
2022-10-17T23:52:26.791Z,14.49
2022-10-17T23:55:05.482Z,14.57
2022-10-17T23:57:56.018Z,14.56
